Time;durP1;ratioP1;P1;durP2;ratioP2;P2;SDS_P1;SDS_P2;PMS_P1;PMS_P2;Temp;Humidity;BMP_temperature;BMP_pressure;BME280_temperature;BME280_humidity;BME280_pressure;Samples;Min_cycle;Max_cycle;Signal;HPM_P1;HPM_P2
2021/09/03 00:01:01;;;;;;;8.98;4.43;;;;;;;;;;5033481;28;20064;-54
2021/09/03 00:03:27;;;;;;;9.35;4.75;;;;;;;;;;5033049;28;20423;-53
2021/09/03 00:05:53;;;;;;;16.33;4.53;;;;;;;;;;5033278;28;20041;-54
2021/09/03 00:08:19;;;;;;;8.50;4.45;;;;;;;;;;5033527;28;20045;-54
2021/09/03 00:10:45;;;;;;;7.15;3.78;;;;;;;;;;5033743;28;20415;-53
2021/09/03 00:13:11;;;;;;;7.88;4.15;;;;;;;;;;5033653;28;20032;-54
2021/09/03 00:15:37;;;;;;;8.95;4.88;;;;;;;;;;5032517;28;20030;-53
2021/09/03 00:18:03;;;;;;;6.60;4.03;;;;;;;;;;5033120;28;20108;-53
2021/09/03 00:20:29;;;;;;;9.63;4.75;;;;;;;;;;5033621;28;20059;-53
2021/09/03 00:22:55;;;;;;;9.82;4.28;;;;;;;;;;5033692;28;20324;-53
2021/09/03 00:25:21;;;;;;;10.30;5.03;;;;;;;;;;5032260;28;20052;-53
2021/09/03 00:27:47;;;;;;;9.38;4.95;;;;;;;;;;5033422;28;20033;-54
2021/09/03 00:30:14;;;;;;;12.00;4.78;;;;;;;;;;5032913;28;20029;-53
2021/09/03 00:32:40;;;;;;;12.20;4.85;;;;;;;;;;5032600;28;20470;-54
2021/09/03 00:35:07;;;;;;;10.80;5.18;;;;;;;;;;5032653;28;20107;-53
2021/09/03 00:37:34;;;;;;;9.35;4.25;;;;;;;;;;5033454;28;20044;-54
2021/09/03 00:40:00;;;;;;;9.52;4.03;;;;;;;;;;5032677;28;20057;-53
2021/09/03 00:42:26;;;;;;;8.35;4.15;;;;;;;;;;5033497;28;20095;-54
2021/09/03 00:44:53;;;;;;;10.70;4.05;;;;;;;;;;5031894;28;20447;-54
2021/09/03 00:47:19;;;;;;;10.38;4.07;;;;;;;;;;5028722;28;20083;-54
2021/09/03 00:49:45;;;;;;;9.80;5.00;;;;;;;;;;5032700;28;20018;-53
2021/09/03 00:52:12;;;;;;;10.20;4.80;;;;;;;;;;5033272;28;20447;-53
2021/09/03 00:54:38;;;;;;;8.48;4.10;;;;;;;;;;5031428;28;20060;-54
2021/09/03 00:57:05;;;;;;;10.43;4.72;;;;;;;;;;5022357;28;20431;-53
2021/09/03 00:59:31;;;;;;;7.28;4.72;;;;;;;;;;5028270;28;20032;-53
2021/09/03 01:01:57;;;;;;;8.70;4.82;;;;;;;;;;5031636;28;20101;-53
2021/09/03 01:04:23;;;;;;;6.63;4.10;;;;;;;;;;5032258;28;20388;-54
2021/09/03 01:06:49;;;;;;;7.47;4.10;;;;;;;;;;5032766;28;20522;-54
2021/09/03 01:09:15;;;;;;;8.95;3.67;;;;;;;;;;5032009;28;20034;-54
2021/09/03 01:11:41;;;;;;;13.95;4.03;;;;;;;;;;5033182;28;20393;-54
2021/09/03 01:14:07;;;;;;;8.93;4.78;;;;;;;;;;5032415;28;20056;-53
2021/09/03 01:16:33;;;;;;;8.95;4.50;;;;;;;;;;5032376;28;20033;-54
2021/09/03 01:18:59;;;;;;;11.45;4.65;;;;;;;;;;5032342;28;20022;-54
2021/09/03 01:21:26;;;;;;;11.63;5.03;;;;;;;;;;5032757;28;20033;-54
2021/09/03 01:23:52;;;;;;;7.78;3.95;;;;;;;;;;5029987;28;20461;-54
2021/09/03 01:26:19;;;;;;;8.57;4.25;;;;;;;;;;5032048;28;20143;-54
2021/09/03 01:28:49;;;;;;;9.52;5.22;;;;;;;;;;5032608;28;20029;-54
2021/09/03 01:31:15;;;;;;;11.40;4.40;;;;;;;;;;5032255;28;20030;-54
2021/09/03 01:33:41;;;;;;;8.68;4.20;;;;;;;;;;5031536;28;20052;-54
2021/09/03 01:36:07;;;;;;;9.55;4.93;;;;;;;;;;5032208;28;20359;-53
2021/09/03 01:38:34;;;;;;;8.70;4.55;;;;;;;;;;5032576;28;20443;-53
2021/09/03 01:41:00;;;;;;;8.75;4.35;;;;;;;;;;5032046;28;20040;-54
2021/09/03 01:43:26;;;;;;;9.60;4.85;;;;;;;;;;5031334;28;20033;-53
2021/09/03 01:45:52;;;;;;;10.60;4.63;;;;;;;;;;5032170;28;20041;-53
2021/09/03 01:48:18;;;;;;;9.80;4.43;;;;;;;;;;5032692;28;20040;-54
2021/09/03 01:50:45;;;;;;;7.60;4.45;;;;;;;;;;5032269;28;20037;-53
2021/09/03 01:53:11;;;;;;;8.32;4.07;;;;;;;;;;5031764;28;20026;-53
2021/09/03 01:55:37;;;;;;;9.48;4.80;;;;;;;;;;5031107;28;20060;-53
2021/09/03 01:58:03;;;;;;;8.70;4.40;;;;;;;;;;5032591;28;20068;-54
2021/09/03 02:00:29;;;;;;;9.25;4.60;;;;;;;;;;5031926;28;20440;-53
2021/09/03 02:02:55;;;;;;;8.00;4.32;;;;;;;;;;5031649;28;20022;-54
2021/09/03 02:05:21;;;;;;;7.95;4.65;;;;;;;;;;5031308;28;20132;-54
2021/09/03 02:07:47;;;;;;;7.18;3.95;;;;;;;;;;5032503;28;20017;-53
2021/09/03 02:10:13;;;;;;;8.80;4.55;;;;;;;;;;5031115;28;20036;-53
2021/09/03 02:12:39;;;;;;;13.07;5.50;;;;;;;;;;5039132;28;20461;-53
2021/09/03 02:15:06;;;;;;;13.88;4.93;;;;;;;;;;5051267;28;20025;-53
2021/09/03 02:17:32;;;;;;;9.20;4.72;;;;;;;;;;5032844;28;20037;-53
2021/09/03 02:19:58;;;;;;;9.25;4.70;;;;;;;;;;5032259;28;20351;-54
2021/09/03 02:22:24;;;;;;;9.07;4.85;;;;;;;;;;5033759;28;20340;-53
2021/09/03 02:24:50;;;;;;;10.10;5.18;;;;;;;;;;5034423;28;20119;-53
2021/09/03 02:27:16;;;;;;;6.35;3.92;;;;;;;;;;5035732;28;20029;-53
2021/09/03 02:29:42;;;;;;;8.07;3.92;;;;;;;;;;5035393;28;20029;-53
2021/09/03 02:32:08;;;;;;;8.73;4.60;;;;;;;;;;5034932;28;20473;-53
2021/09/03 02:34:34;;;;;;;8.65;4.72;;;;;;;;;;5034888;28;20032;-53
2021/09/03 02:37:00;;;;;;;11.38;4.70;;;;;;;;;;5035381;28;20021;-53
2021/09/03 02:39:26;;;;;;;8.00;4.40;;;;;;;;;;5035917;28;20080;-53
2021/09/03 02:41:52;;;;;;;10.73;4.65;;;;;;;;;;5034394;28;20029;-53
2021/09/03 02:44:18;;;;;;;9.55;4.43;;;;;;;;;;5035059;28;20022;-53
2021/09/03 02:46:44;;;;;;;9.15;4.05;;;;;;;;;;5035010;28;20363;-53
2021/09/03 02:49:10;;;;;;;23.00;4.95;;;;;;;;;;5035534;28;20430;-53
2021/09/03 02:51:36;;;;;;;10.05;4.40;;;;;;;;;;5035178;28;20108;-53
2021/09/03 02:54:02;;;;;;;9.00;4.40;;;;;;;;;;5034709;28;20026;-54
2021/09/03 02:56:28;;;;;;;10.38;3.85;;;;;;;;;;5034482;28;20054;-53
2021/09/03 02:58:54;;;;;;;9.35;4.70;;;;;;;;;;5035167;28;20022;-53
2021/09/03 03:01:20;;;;;;;11.25;5.07;;;;;;;;;;5034512;28;20037;-53
2021/09/03 03:03:46;;;;;;;8.70;4.43;;;;;;;;;;5034245;28;20468;-53
2021/09/03 03:06:12;;;;;;;8.45;4.05;;;;;;;;;;5035151;28;20124;-53
2021/09/03 03:08:38;;;;;;;8.45;4.25;;;;;;;;;;5035172;28;20021;-53
2021/09/03 03:11:04;;;;;;;9.48;4.75;;;;;;;;;;5033825;28;20025;-53
2021/09/03 03:13:30;;;;;;;10.55;4.65;;;;;;;;;;5034046;28;20022;-53
2021/09/03 03:15:56;;;;;;;7.15;4.00;;;;;;;;;;5034528;28;20061;-53
2021/09/03 03:18:23;;;;;;;8.02;4.30;;;;;;;;;;5034366;28;20447;-53
2021/09/03 03:20:49;;;;;;;9.30;4.40;;;;;;;;;;5034869;28;20073;-54
2021/09/03 03:23:16;;;;;;;9.32;5.00;;;;;;;;;;5034493;28;20108;-53
2021/09/03 03:25:42;;;;;;;7.85;4.25;;;;;;;;;;5033556;28;20056;-53
2021/09/03 03:28:08;;;;;;;8.10;4.43;;;;;;;;;;5034146;28;20037;-53
2021/09/03 03:30:34;;;;;;;8.85;3.90;;;;;;;;;;5034988;28;20034;-53
2021/09/03 03:33:00;;;;;;;14.27;4.50;;;;;;;;;;5032647;28;20029;-53
2021/09/03 03:35:27;;;;;;;10.02;4.28;;;;;;;;;;5034012;28;20025;-53
2021/09/03 03:37:53;;;;;;;7.18;4.25;;;;;;;;;;5034375;28;20071;-53
2021/09/03 03:40:19;;;;;;;10.55;4.57;;;;;;;;;;5033825;28;20333;-53
2021/09/03 03:42:45;;;;;;;7.97;4.00;;;;;;;;;;5034482;28;20068;-53
2021/09/03 03:45:11;;;;;;;10.10;4.35;;;;;;;;;;5033771;28;20061;-53
2021/09/03 03:47:37;;;;;;;6.72;4.22;;;;;;;;;;5034083;28;20412;-53
2021/09/03 03:50:04;;;;;;;6.85;3.65;;;;;;;;;;5034049;28;20025;-53
2021/09/03 03:52:30;;;;;;;8.85;3.97;;;;;;;;;;5034076;28;20033;-53
2021/09/03 03:54:56;;;;;;;8.70;4.18;;;;;;;;;;5033063;28;20071;-53
2021/09/03 03:57:22;;;;;;;7.60;4.40;;;;;;;;;;5032937;28;20101;-53
2021/09/03 03:59:48;;;;;;;9.20;4.82;;;;;;;;;;5034287;28;20304;-53
2021/09/03 04:02:14;;;;;;;8.95;4.70;;;;;;;;;;5033022;28;20364;-53
2021/09/03 04:04:40;;;;;;;7.65;4.13;;;;;;;;;;5033264;28;20022;-53
2021/09/03 04:07:06;;;;;;;11.65;5.35;;;;;;;;;;5034118;28;20432;-53
2021/09/03 04:09:32;;;;;;;8.52;4.22;;;;;;;;;;5034070;28;20026;-53
2021/09/03 04:11:58;;;;;;;9.43;5.25;;;;;;;;;;5032775;28;20033;-53
2021/09/03 04:14:24;;;;;;;9.93;4.60;;;;;;;;;;5033132;28;20029;-53
2021/09/03 04:16:51;;;;;;;8.73;4.75;;;;;;;;;;5033621;28;20363;-53
2021/09/03 04:19:17;;;;;;;8.77;4.68;;;;;;;;;;5033645;28;20067;-53
2021/09/03 04:21:43;;;;;;;8.50;4.43;;;;;;;;;;5033803;28;20029;-53
2021/09/03 04:24:09;;;;;;;11.23;4.55;;;;;;;;;;5032860;28;20478;-53
2021/09/03 04:26:35;;;;;;;8.43;4.03;;;;;;;;;;5032207;28;20042;-53
2021/09/03 04:29:01;;;;;;;8.60;4.57;;;;;;;;;;5033782;28;20068;-53
2021/09/03 04:31:27;;;;;;;10.23;4.85;;;;;;;;;;5029879;28;20440;-53
2021/09/03 04:33:53;;;;;;;7.82;3.90;;;;;;;;;;5031050;28;20061;-53
2021/09/03 04:36:19;;;;;;;7.18;3.60;;;;;;;;;;5033326;28;20183;-53
2021/09/03 04:38:45;;;;;;;6.85;4.10;;;;;;;;;;5032867;28;20029;-54
2021/09/03 04:41:11;;;;;;;8.82;4.35;;;;;;;;;;5031444;28;20061;-53
2021/09/03 04:43:36;;;;;;;8.77;4.55;;;;;;;;;;5031817;28;20033;-53
2021/09/03 04:46:02;;;;;;;8.98;3.97;;;;;;;;;;5032725;28;20037;-53
2021/09/03 04:48:28;;;;;;;14.57;4.45;;;;;;;;;;5032698;28;20505;-53
2021/09/03 04:50:54;;;;;;;7.93;3.78;;;;;;;;;;5032903;28;20040;-53
2021/09/03 04:53:20;;;;;;;9.43;4.28;;;;;;;;;;5032063;28;20435;-53
2021/09/03 04:55:47;;;;;;;8.25;4.40;;;;;;;;;;5032841;28;20056;-53
2021/09/03 04:58:13;;;;;;;9.50;4.53;;;;;;;;;;5031832;28;20045;-53
2021/09/03 05:00:38;;;;;;;8.23;4.30;;;;;;;;;;5032834;28;20119;-53
2021/09/03 05:03:05;;;;;;;6.50;3.88;;;;;;;;;;5031914;28;20032;-53
2021/09/03 05:05:31;;;;;;;12.00;4.85;;;;;;;;;;5032515;28;20048;-53
2021/09/03 05:07:56;;;;;;;7.75;4.05;;;;;;;;;;5032105;28;20463;-53
2021/09/03 05:10:23;;;;;;;10.02;4.53;;;;;;;;;;5032176;28;20033;-53
2021/09/03 05:12:48;;;;;;;9.52;4.57;;;;;;;;;;5031448;28;20455;-53
2021/09/03 05:15:16;;;;;;;10.15;4.45;;;;;;;;;;5031667;28;20029;-53
2021/09/03 05:17:43;;;;;;;8.13;4.10;;;;;;;;;;5032248;28;20029;-53
2021/09/03 05:20:11;;;;;;;9.63;4.43;;;;;;;;;;5032828;28;20032;-53
2021/09/03 05:22:37;;;;;;;10.45;4.78;;;;;;;;;;5033010;28;20029;-53
2021/09/03 05:25:04;;;;;;;8.88;4.18;;;;;;;;;;5031794;28;20029;-53
2021/09/03 05:27:30;;;;;;;8.68;4.30;;;;;;;;;;5031630;28;20144;-53
2021/09/03 05:29:56;;;;;;;7.95;4.13;;;;;;;;;;5032659;28;20033;-53
2021/09/03 05:32:22;;;;;;;9.10;4.45;;;;;;;;;;5032117;28;20029;-53
2021/09/03 05:34:49;;;;;;;8.57;3.80;;;;;;;;;;5031631;28;20040;-51
2021/09/03 05:37:15;;;;;;;10.77;5.10;;;;;;;;;;5032366;28;20026;-50
2021/09/03 05:39:41;;;;;;;11.25;4.60;;;;;;;;;;5032552;28;20108;-50
2021/09/03 05:42:07;;;;;;;17.63;4.88;;;;;;;;;;5031620;28;20129;-51
2021/09/03 05:44:33;;;;;;;7.30;4.80;;;;;;;;;;5031846;28;20040;-51
2021/09/03 05:46:59;;;;;;;8.82;4.47;;;;;;;;;;5032489;28;20048;-51
2021/09/03 05:49:25;;;;;;;18.98;4.93;;;;;;;;;;5032096;28;20025;-51
2021/09/03 05:51:51;;;;;;;16.38;4.97;;;;;;;;;;5032148;28;20121;-51
2021/09/03 05:54:17;;;;;;;29.00;4.90;;;;;;;;;;5031717;28;20026;-51
2021/09/03 05:56:43;;;;;;;9.35;4.70;;;;;;;;;;5032965;28;20022;-51
2021/09/03 05:59:09;;;;;;;7.38;4.45;;;;;;;;;;5036528;28;20469;-51
2021/09/03 06:01:35;;;;;;;8.60;4.65;;;;;;;;;;5036095;28;20032;-51
2021/09/03 06:04:01;;;;;;;8.90;5.00;;;;;;;;;;5035014;28;20071;-52
2021/09/03 06:06:27;;;;;;;9.98;4.50;;;;;;;;;;5035977;28;20137;-52
2021/09/03 06:08:53;;;;;;;11.52;5.10;;;;;;;;;;5036103;28;20040;-51
2021/09/03 06:11:21;;;;;;;8.98;4.90;;;;;;;;;;5036404;28;20029;-51
2021/09/03 06:13:48;;;;;;;10.25;4.70;;;;;;;;;;5034333;28;20032;-52
2021/09/03 06:16:14;;;;;;;10.55;4.72;;;;;;;;;;5036430;28;20033;-52
2021/09/03 06:18:40;;;;;;;8.88;4.82;;;;;;;;;;5035396;28;20045;-51
2021/09/03 06:21:06;;;;;;;10.25;5.10;;;;;;;;;;5035553;28;20391;-52
2021/09/03 06:23:32;;;;;;;8.88;4.78;;;;;;;;;;5035158;28;20029;-51
2021/09/03 06:25:58;;;;;;;9.60;5.53;;;;;;;;;;5035673;28;20038;-52
2021/09/03 06:28:24;;;;;;;12.55;4.93;;;;;;;;;;5034495;28;20068;-57
2021/09/03 06:30:50;;;;;;;10.43;5.95;;;;;;;;;;5035852;28;20033;-52
2021/09/03 06:33:16;;;;;;;13.70;6.35;;;;;;;;;;5035010;28;20088;-52
2021/09/03 06:35:42;;;;;;;9.65;5.63;;;;;;;;;;5035059;28;20359;-52
2021/09/03 06:38:08;;;;;;;12.52;6.15;;;;;;;;;;5035480;28;20458;-52
2021/09/03 06:40:34;;;;;;;10.70;6.30;;;;;;;;;;5035742;28;20033;-52
2021/09/03 06:43:00;;;;;;;20.08;6.78;;;;;;;;;;5034368;28;20057;-52
2021/09/03 06:45:26;;;;;;;14.88;7.20;;;;;;;;;;5035241;28;20044;-52
2021/09/03 06:47:52;;;;;;;9.77;5.55;;;;;;;;;;5035149;28;20090;-52
2021/09/03 06:50:18;;;;;;;12.88;6.32;;;;;;;;;;5034732;28;20447;-51
2021/09/03 06:52:45;;;;;;;16.15;8.48;;;;;;;;;;5035185;28;20454;-51
2021/09/03 06:55:11;;;;;;;19.35;9.48;;;;;;;;;;5033935;28;20026;-51
2021/09/03 06:57:39;;;;;;;18.42;8.93;;;;;;;;;;5028205;28;20107;-52
2021/09/03 07:00:05;;;;;;;21.48;8.90;;;;;;;;;;5025350;28;20029;-52
2021/09/03 07:02:31;;;;;;;26.65;9.82;;;;;;;;;;5033618;28;20036;-51
2021/09/03 07:04:57;;;;;;;24.73;11.35;;;;;;;;;;5034415;28;20021;-51
2021/09/03 07:07:23;;;;;;;30.08;13.27;;;;;;;;;;5033822;28;20030;-52
2021/09/03 07:09:50;;;;;;;23.00;11.18;;;;;;;;;;5035155;28;20030;-53
2021/09/03 07:12:17;;;;;;;35.15;14.82;;;;;;;;;;5033923;28;20156;-53
2021/09/03 07:14:44;;;;;;;34.30;14.30;;;;;;;;;;5033043;28;20113;-53
2021/09/03 07:17:10;;;;;;;40.22;15.75;;;;;;;;;;5034481;28;20329;-52
2021/09/03 07:19:36;;;;;;;31.48;12.38;;;;;;;;;;5035029;28;20025;-53
2021/09/03 07:22:03;;;;;;;37.38;14.13;;;;;;;;;;5034458;28;20025;-53
2021/09/03 07:24:30;;;;;;;48.17;18.23;;;;;;;;;;5034105;28;20047;-53
2021/09/03 07:26:56;;;;;;;37.00;16.05;;;;;;;;;;5032169;28;20040;-53
2021/09/03 07:29:22;;;;;;;43.38;16.35;;;;;;;;;;5033857;28;20026;-53
2021/09/03 07:31:48;;;;;;;32.63;13.80;;;;;;;;;;5034528;28;20033;-53
2021/09/03 07:34:14;;;;;;;50.13;18.10;;;;;;;;;;5033496;28;20350;-53
2021/09/03 07:36:40;;;;;;;40.60;16.40;;;;;;;;;;5032925;28;20033;-53
2021/09/03 07:39:06;;;;;;;43.80;16.02;;;;;;;;;;5034217;28;20021;-53
2021/09/03 07:41:32;;;;;;;46.83;16.92;;;;;;;;;;5034625;28;20025;-53
2021/09/03 07:43:58;;;;;;;49.42;16.85;;;;;;;;;;5032706;28;20052;-53
2021/09/03 07:46:24;;;;;;;54.80;17.20;;;;;;;;;;5034132;28;20471;-53
2021/09/03 07:48:50;;;;;;;62.65;21.23;;;;;;;;;;5034108;28;20037;-52
2021/09/03 07:51:16;;;;;;;23.73;10.95;;;;;;;;;;5034204;28;20037;-53
2021/09/03 07:53:43;;;;;;;25.35;10.30;;;;;;;;;;5033200;28;20095;-53
2021/09/03 07:56:09;;;;;;;20.35;8.23;;;;;;;;;;5034163;28;20057;-53
2021/09/03 07:58:35;;;;;;;16.70;7.65;;;;;;;;;;5033253;28;20099;-53
2021/09/03 08:01:01;;;;;;;39.80;14.75;;;;;;;;;;5034182;28;20056;-53
2021/09/03 08:03:28;;;;;;;36.47;14.68;;;;;;;;;;5032790;28;20037;-53
2021/09/03 08:05:54;;;;;;;50.13;15.23;;;;;;;;;;5033990;28;20041;-53
2021/09/03 08:08:20;;;;;;;47.22;18.45;;;;;;;;;;5033847;28;20032;-53
2021/09/03 08:10:47;;;;;;;49.05;18.23;;;;;;;;;;5033756;28;20113;-52
2021/09/03 08:13:13;;;;;;;40.85;13.95;;;;;;;;;;5032875;28;20037;-53
2021/09/03 08:15:40;;;;;;;42.92;15.45;;;;;;;;;;5033206;28;20041;-53
2021/09/03 08:18:06;;;;;;;58.90;19.83;;;;;;;;;;5033627;28;20086;-52
2021/09/03 08:20:33;;;;;;;48.50;13.80;;;;;;;;;;5032827;28;20029;-52
2021/09/03 08:23:02;;;;;;;24.48;10.23;;;;;;;;;;5033435;28;20379;-53
2021/09/03 08:25:28;;;;;;;40.40;13.30;;;;;;;;;;5032639;28;20356;-52
2021/09/03 08:27:54;;;;;;;55.60;19.38;;;;;;;;;;5033460;28;20284;-52
2021/09/03 08:30:21;;;;;;;63.35;21.23;;;;;;;;;;5032427;28;20079;-53
2021/09/03 08:32:47;;;;;;;63.55;21.40;;;;;;;;;;5032635;28;20486;-53
2021/09/03 08:35:13;;;;;;;53.28;19.13;;;;;;;;;;5030575;28;20052;-52
2021/09/03 08:37:40;;;;;;;36.78;16.40;;;;;;;;;;5033560;28;20037;-52
2021/09/03 08:40:06;;;;;;;41.13;16.67;;;;;;;;;;5033345;28;20103;-52
2021/09/03 08:42:32;;;;;;;26.80;12.80;;;;;;;;;;5033221;28;20095;-53
2021/09/03 08:44:59;;;;;;;41.15;15.48;;;;;;;;;;5031619;28;20057;-53
2021/09/03 08:47:26;;;;;;;22.30;10.98;;;;;;;;;;5032912;28;20040;-53
2021/09/03 08:49:52;;;;;;;24.15;11.10;;;;;;;;;;5033265;28;20055;-52
2021/09/03 08:52:18;;;;;;;18.88;10.88;;;;;;;;;;5033029;28;20033;-52
2021/09/03 08:54:44;;;;;;;17.52;9.63;;;;;;;;;;5032184;28;20067;-52
2021/09/03 08:57:12;;;;;;;17.65;8.77;;;;;;;;;;5033329;28;20029;-52
2021/09/03 08:59:38;;;;;;;17.45;8.95;;;;;;;;;;5032238;28;20462;-52
2021/09/03 09:02:17;;;;;;;16.98;9.00;;;;;;;;;;5032742;28;20049;-52
2021/09/03 09:04:44;;;;;;;14.80;7.43;;;;;;;;;;5032117;28;20124;-52
2021/09/03 09:07:10;;;;;;;10.63;6.45;;;;;;;;;;5032761;28;20033;-53
2021/09/03 09:09:38;;;;;;;21.23;7.95;;;;;;;;;;5033130;28;20112;-52
2021/09/03 09:12:12;;;;;;;13.48;7.65;;;;;;;;;;5032584;28;20037;-53
2021/09/03 09:14:57;;;;;;;15.77;7.03;;;;;;;;;;5030895;28;20030;-53
2021/09/03 09:17:33;;;;;;;16.33;6.97;;;;;;;;;;5032839;28;20018;-53
2021/09/03 09:19:59;;;;;;;13.70;7.00;;;;;;;;;;5032344;28;20452;-52
2021/09/03 09:22:26;;;;;;;14.90;7.68;;;;;;;;;;5032908;28;20034;-52
2021/09/03 09:24:56;;;;;;;28.40;7.65;;;;;;;;;;5032022;28;20462;-53
2021/09/03 09:27:26;;;;;;;20.45;7.38;;;;;;;;;;5032261;28;20041;-52
2021/09/03 09:29:52;;;;;;;14.23;7.15;;;;;;;;;;5031911;28;20033;-52
2021/09/03 09:32:18;;;;;;;11.32;6.07;;;;;;;;;;5036687;28;20025;-52
2021/09/03 09:34:44;;;;;;;14.50;7.50;;;;;;;;;;5035890;28;20033;-53
2021/09/03 09:37:14;;;;;;;15.48;6.78;;;;;;;;;;5034631;28;20025;-52
2021/09/03 09:39:43;;;;;;;12.95;7.18;;;;;;;;;;5036937;28;20351;-52
2021/09/03 09:42:18;;;;;;;14.02;8.25;;;;;;;;;;5036749;28;20029;-52
2021/09/03 09:44:44;;;;;;;13.60;7.38;;;;;;;;;;5034958;28;20029;-53
2021/09/03 09:47:13;;;;;;;9.15;5.32;;;;;;;;;;5036831;28;20356;-52
2021/09/03 09:49:40;;;;;;;13.27;6.50;;;;;;;;;;5035782;28;20030;-52
2021/09/03 09:52:06;;;;;;;14.10;7.10;;;;;;;;;;5036232;28;20030;-52
2021/09/03 09:54:33;;;;;;;19.85;7.97;;;;;;;;;;5035921;28;20022;-52
2021/09/03 09:57:00;;;;;;;13.45;6.88;;;;;;;;;;5036645;28;20084;-52
2021/09/03 09:59:27;;;;;;;13.10;7.13;;;;;;;;;;5036498;28;20021;-52
2021/09/03 10:01:57;;;;;;;11.18;6.65;;;;;;;;;;5035148;28;20418;-52
2021/09/03 10:04:24;;;;;;;11.63;6.07;;;;;;;;;;5035178;28;20033;-52
2021/09/03 10:06:52;;;;;;;20.77;6.60;;;;;;;;;;5036020;28;20091;-53
2021/09/03 10:09:20;;;;;;;17.08;7.25;;;;;;;;;;5036039;28;20388;-52
2021/09/03 10:11:47;;;;;;;11.63;6.22;;;;;;;;;;5036307;28;20071;-52
2021/09/03 10:14:16;;;;;;;20.20;7.53;;;;;;;;;;5035362;28;20191;-53
2021/09/03 10:16:42;;;;;;;12.10;6.32;;;;;;;;;;5035270;28;20044;-53
2021/09/03 10:19:08;;;;;;;13.85;6.40;;;;;;;;;;5035685;28;20136;-53
2021/09/03 10:21:39;;;;;;;11.40;5.85;;;;;;;;;;5036151;28;20026;-53
2021/09/03 10:24:10;;;;;;;11.57;6.00;;;;;;;;;;5034854;28;20033;-53
2021/09/03 10:26:41;;;;;;;18.60;5.72;;;;;;;;;;5036177;28;20430;-52
2021/09/03 10:29:25;;;;;;;17.75;6.68;;;;;;;;;;5035422;28;20469;-53
2021/09/03 10:32:17;;;;;;;11.25;5.90;;;;;;;;;;5034789;28;20025;-53
2021/09/03 10:34:50;;;;;;;12.30;6.13;;;;;;;;;;5034389;28;20043;-52
2021/09/03 10:37:16;;;;;;;10.93;5.60;;;;;;;;;;5033683;28;20025;-53
2021/09/03 10:39:42;;;;;;;11.63;5.63;;;;;;;;;;5035928;28;20121;-52
2021/09/03 10:42:08;;;;;;;11.95;6.22;;;;;;;;;;5035038;28;20108;-52
2021/09/03 10:44:52;;;;;;;10.63;5.32;;;;;;;;;;5035060;28;20029;-52
2021/09/03 10:47:54;;;;;;;10.88;5.63;;;;;;;;;;5034648;28;20060;-52
2021/09/03 10:50:21;;;;;;;9.93;5.28;;;;;;;;;;5040540;28;20056;-52
2021/09/03 10:53:05;;;;;;;10.40;5.50;;;;;;;;;;5036428;28;20124;-53
2021/09/03 10:55:50;;;;;;;13.13;6.28;;;;;;;;;;5034876;28;20022;-52
2021/09/03 10:58:29;;;;;;;15.13;6.72;;;;;;;;;;5035708;28;20196;-52
2021/09/03 11:01:10;;;;;;;17.67;7.43;;;;;;;;;;5034187;28;20025;-52
2021/09/03 11:03:45;;;;;;;10.55;6.10;;;;;;;;;;5033661;28;20033;-53
2021/09/03 11:06:14;;;;;;;12.85;7.20;;;;;;;;;;5029758;28;20026;-52
2021/09/03 11:08:41;;;;;;;13.63;5.53;;;;;;;;;;5015465;28;20361;-52
2021/09/03 11:11:23;;;;;;;11.02;5.75;;;;;;;;;;5015550;28;20342;-52
2021/09/03 11:13:50;;;;;;;11.60;6.20;;;;;;;;;;5014598;28;20018;-52
2021/09/03 11:16:30;;;;;;;10.82;5.57;;;;;;;;;;5021179;28;20031;-52
2021/09/03 11:19:10;;;;;;;16.00;6.25;;;;;;;;;;5033852;28;20036;-52
2021/09/03 11:21:39;;;;;;;12.73;7.18;;;;;;;;;;5034581;28;20471;-52
2021/09/03 11:24:06;;;;;;;10.48;5.85;;;;;;;;;;5034234;28;20026;-52
2021/09/03 11:26:34;;;;;;;13.65;7.45;;;;;;;;;;5034601;28;20033;-52
2021/09/03 11:29:02;;;;;;;10.85;5.93;;;;;;;;;;5034570;28;20025;-52
2021/09/03 11:31:29;;;;;;;12.38;6.03;;;;;;;;;;5034197;28;20083;-52
2021/09/03 11:33:55;;;;;;;14.75;6.30;;;;;;;;;;5033186;28;20394;-52
2021/09/03 11:36:21;;;;;;;15.07;7.38;;;;;;;;;;5032813;28;20026;-52
2021/09/03 11:38:54;;;;;;;13.27;7.07;;;;;;;;;;5034828;28;20071;-52
2021/09/03 11:41:20;;;;;;;15.50;6.63;;;;;;;;;;5034564;28;20440;-52
2021/09/03 11:43:46;;;;;;;13.15;6.05;;;;;;;;;;5033397;28;20385;-52
2021/09/03 11:46:20;;;;;;;10.90;6.10;;;;;;;;;;5033544;28;20506;-52
2021/09/03 11:48:47;;;;;;;12.35;5.95;;;;;;;;;;5033505;28;20026;-52
2021/09/03 11:51:24;;;;;;;15.93;6.88;;;;;;;;;;5034314;28;20072;-52
2021/09/03 11:53:50;;;;;;;12.00;5.78;;;;;;;;;;5032134;28;20116;-53
2021/09/03 11:56:17;;;;;;;11.93;5.35;;;;;;;;;;5034252;28;20351;-52
2021/09/03 11:58:43;;;;;;;13.05;6.72;;;;;;;;;;5034058;28;20105;-52
2021/09/03 12:01:11;;;;;;;13.40;7.07;;;;;;;;;;5033225;28;20113;-52
2021/09/03 12:03:44;;;;;;;10.68;5.93;;;;;;;;;;5032683;28;20037;-52
2021/09/03 12:06:15;;;;;;;14.38;6.72;;;;;;;;;;5033900;28;20124;-52
2021/09/03 12:08:41;;;;;;;11.43;6.13;;;;;;;;;;5034176;28;20072;-53
2021/09/03 12:11:11;;;;;;;14.68;7.13;;;;;;;;;;5033972;28;20033;-52
2021/09/03 12:13:40;;;;;;;18.98;7.75;;;;;;;;;;5033159;28;20045;-52
2021/09/03 12:16:08;;;;;;;15.45;8.88;;;;;;;;;;5033416;28;20037;-52
2021/09/03 12:18:36;;;;;;;15.70;7.45;;;;;;;;;;5033359;28;20061;-53
2021/09/03 12:21:11;;;;;;;10.77;6.10;;;;;;;;;;5033827;28;20112;-52
2021/09/03 12:23:38;;;;;;;16.90;6.70;;;;;;;;;;5032598;28;20526;-52
2021/09/03 12:26:05;;;;;;;13.25;6.70;;;;;;;;;;5033410;28;20048;-52
2021/09/03 12:28:32;;;;;;;10.55;6.22;;;;;;;;;;5033562;28;20043;-52
2021/09/03 12:30:58;;;;;;;9.13;5.53;;;;;;;;;;5033688;28;20470;-52
2021/09/03 12:33:26;;;;;;;10.70;6.05;;;;;;;;;;5031143;28;20057;-52
2021/09/03 12:35:53;;;;;;;12.75;6.35;;;;;;;;;;5031526;28;20121;-52
2021/09/03 12:38:29;;;;;;;17.92;6.18;;;;;;;;;;5033735;28;20017;-52
2021/09/03 12:41:09;;;;;;;13.00;7.10;;;;;;;;;;5033794;28;20079;-53
2021/09/03 12:43:35;;;;;;;15.10;7.13;;;;;;;;;;5032690;28;20034;-53
2021/09/03 12:46:08;;;;;;;9.73;5.57;;;;;;;;;;5033671;28;20084;-52
2021/09/03 12:48:35;;;;;;;17.88;8.13;;;;;;;;;;5032013;28;20379;-53
2021/09/03 12:51:00;;;;;;;14.30;7.07;;;;;;;;;;5032391;28;20026;-52
2021/09/03 12:53:27;;;;;;;14.02;6.47;;;;;;;;;;5032707;28;20029;-52
2021/09/03 12:55:53;;;;;;;10.90;5.43;;;;;;;;;;5033021;28;20449;-52
2021/09/03 12:58:19;;;;;;;9.73;5.93;;;;;;;;;;5022508;28;20575;-52
2021/09/03 13:00:45;;;;;;;10.65;6.10;;;;;;;;;;5027869;28;20041;-52
2021/09/03 13:03:11;;;;;;;12.27;6.22;;;;;;;;;;5032099;28;20022;-52
2021/09/03 13:05:38;;;;;;;11.77;5.78;;;;;;;;;;5031101;28;20036;-52
2021/09/03 13:08:04;;;;;;;16.05;6.72;;;;;;;;;;5014611;28;20072;-52
2021/09/03 13:10:30;;;;;;;22.42;7.32;;;;;;;;;;5011682;28;20037;-53
2021/09/03 13:12:56;;;;;;;10.75;5.75;;;;;;;;;;5013400;28;20029;-52
2021/09/03 13:15:22;;;;;;;13.48;7.53;;;;;;;;;;5012347;28;20022;-52
2021/09/03 13:17:49;;;;;;;9.48;6.63;;;;;;;;;;5021294;28;20144;-52
2021/09/03 13:20:16;;;;;;;14.95;6.10;;;;;;;;;;5032275;28;20466;-53
2021/09/03 13:22:42;;;;;;;18.85;6.70;;;;;;;;;;5032834;28;20033;-52
2021/09/03 13:25:08;;;;;;;9.82;4.68;;;;;;;;;;5032303;28;20064;-52
2021/09/03 13:27:34;;;;;;;11.23;5.40;;;;;;;;;;5032438;28;20041;-52
2021/09/03 13:30:01;;;;;;;13.88;5.88;;;;;;;;;;5033287;28;20132;-52
2021/09/03 13:32:27;;;;;;;11.60;5.90;;;;;;;;;;5031689;28;20037;-52
2021/09/03 13:34:53;;;;;;;11.77;5.78;;;;;;;;;;5030902;28;20023;-52
2021/09/03 13:37:20;;;;;;;10.07;5.40;;;;;;;;;;5032870;28;20033;-52
2021/09/03 13:39:46;;;;;;;10.68;5.65;;;;;;;;;;5032823;28;20371;-52
2021/09/03 13:42:15;;;;;;;10.52;5.25;;;;;;;;;;5032670;28;20463;-52
2021/09/03 13:44:42;;;;;;;9.85;5.15;;;;;;;;;;5031858;28;20029;-52
2021/09/03 13:47:11;;;;;;;15.82;5.68;;;;;;;;;;5031689;28;20039;-52
2021/09/03 13:49:37;;;;;;;11.18;5.70;;;;;;;;;;5032169;28;20076;-52
2021/09/03 13:52:03;;;;;;;8.32;4.70;;;;;;;;;;5032258;28;20021;-53
2021/09/03 13:54:29;;;;;;;7.72;4.32;;;;;;;;;;5032103;28;20026;-52
2021/09/03 13:56:55;;;;;;;10.57;4.82;;;;;;;;;;5032550;28;20508;-53
2021/09/03 13:59:21;;;;;;;8.88;4.10;;;;;;;;;;5032658;28;20032;-53
2021/09/03 14:01:47;;;;;;;9.27;4.05;;;;;;;;;;5032579;28;20044;-52
2021/09/03 14:04:13;;;;;;;7.57;4.53;;;;;;;;;;5029975;28;20037;-52
2021/09/03 14:06:39;;;;;;;9.68;5.55;;;;;;;;;;5032113;28;20029;-52
2021/09/03 14:09:07;;;;;;;9.65;4.88;;;;;;;;;;5032254;28;20529;-52
2021/09/03 14:11:33;;;;;;;11.60;5.43;;;;;;;;;;5032437;28;20403;-52
2021/09/03 14:13:59;;;;;;;8.48;4.95;;;;;;;;;;5031753;28;20025;-52
2021/09/03 14:16:25;;;;;;;7.22;4.30;;;;;;;;;;5032120;28;20439;-52
2021/09/03 14:18:51;;;;;;;9.85;5.20;;;;;;;;;;5034478;28;20347;-52
2021/09/03 14:21:17;;;;;;;8.70;4.60;;;;;;;;;;5035317;28;20035;-52
2021/09/03 14:23:43;;;;;;;11.88;4.85;;;;;;;;;;5035169;28;20030;-53
2021/09/03 14:26:12;;;;;;;7.72;4.57;;;;;;;;;;5035848;28;20030;-52
2021/09/03 14:28:38;;;;;;;15.32;5.70;;;;;;;;;;5035525;28;20112;-52
2021/09/03 14:31:04;;;;;;;9.02;4.72;;;;;;;;;;5035653;28;20501;-52
2021/09/03 14:33:30;;;;;;;13.00;5.55;;;;;;;;;;5034207;28;20053;-52